sensor_id;sensor_type;location;lat;lon;timestamp;P1;durP1;ratioP1;P2;durP2;ratioP2
60344;SDS011;46188;52.324;8.032;2023-08-01T00:01:54;3.95;;;3.40;;
60344;SDS011;46188;52.324;8.032;2023-08-01T00:04:19;3.58;;;2.97;;
60344;SDS011;46188;52.324;8.032;2023-08-01T00:06:45;3.53;;;2.88;;
60344;SDS011;46188;52.324;8.032;2023-08-01T00:09:10;4.05;;;3.20;;
60344;SDS011;46188;52.324;8.032;2023-08-01T00:11:35;4.78;;;3.40;;
60344;SDS011;46188;52.324;8.032;2023-08-01T00:14:00;3.47;;;2.95;;
60344;SDS011;46188;52.324;8.032;2023-08-01T00:16:26;5.80;;;3.17;;
60344;SDS011;46188;52.324;8.032;2023-08-01T00:18:51;4.85;;;3.50;;
60344;SDS011;46188;52.324;8.032;2023-08-01T00:21:17;4.38;;;3.58;;
60344;SDS011;46188;52.324;8.032;2023-08-01T00:23:42;3.78;;;3.10;;
60344;SDS011;46188;52.324;8.032;2023-08-01T00:26:07;4.43;;;2.90;;
60344;SDS011;46188;52.324;8.032;2023-08-01T00:28:32;3.30;;;2.60;;
60344;SDS011;46188;52.324;8.032;2023-08-01T00:31:01;12.88;;;3.47;;
60344;SDS011;46188;52.324;8.032;2023-08-01T00:33:30;4.93;;;3.42;;
60344;SDS011;46188;52.324;8.032;2023-08-01T00:35:55;8.90;;;3.78;;
60344;SDS011;46188;52.324;8.032;2023-08-01T00:38:21;5.15;;;3.80;;
60344;SDS011;46188;52.324;8.032;2023-08-01T00:40:46;4.32;;;3.05;;
60344;SDS011;46188;52.324;8.032;2023-08-01T00:43:11;5.68;;;3.38;;
60344;SDS011;46188;52.324;8.032;2023-08-01T00:45:37;5.80;;;3.88;;
60344;SDS011;46188;52.324;8.032;2023-08-01T00:48:02;6.00;;;3.33;;
60344;SDS011;46188;52.324;8.032;2023-08-01T00:50:28;4.30;;;3.70;;
60344;SDS011;46188;52.324;8.032;2023-08-01T00:52:53;5.20;;;3.08;;
60344;SDS011;46188;52.324;8.032;2023-08-01T00:55:19;4.07;;;3.50;;
60344;SDS011;46188;52.324;8.032;2023-08-01T00:57:46;6.38;;;3.60;;
60344;SDS011;46188;52.324;8.032;2023-08-01T01:00:12;5.20;;;2.95;;
60344;SDS011;46188;52.324;8.032;2023-08-01T01:02:37;5.32;;;3.42;;
60344;SDS011;46188;52.324;8.032;2023-08-01T01:05:03;7.07;;;3.63;;
60344;SDS011;46188;52.324;8.032;2023-08-01T01:07:30;4.97;;;3.85;;
60344;SDS011;46188;52.324;8.032;2023-08-01T01:09:55;6.05;;;3.85;;
60344;SDS011;46188;52.324;8.032;2023-08-01T01:12:21;7.20;;;3.60;;
60344;SDS011;46188;52.324;8.032;2023-08-01T01:14:46;3.92;;;3.03;;
60344;SDS011;46188;52.324;8.032;2023-08-01T01:17:11;5.57;;;3.22;;
60344;SDS011;46188;52.324;8.032;2023-08-01T01:19:37;3.78;;;3.20;;
60344;SDS011;46188;52.324;8.032;2023-08-01T01:22:03;4.85;;;3.25;;
60344;SDS011;46188;52.324;8.032;2023-08-01T01:24:31;4.32;;;3.20;;
60344;SDS011;46188;52.324;8.032;2023-08-01T01:26:58;4.03;;;3.28;;
60344;SDS011;46188;52.324;8.032;2023-08-01T01:29:25;4.38;;;3.15;;
60344;SDS011;46188;52.324;8.032;2023-08-01T01:31:51;4.38;;;3.22;;
60344;SDS011;46188;52.324;8.032;2023-08-01T01:34:18;8.05;;;3.75;;
60344;SDS011;46188;52.324;8.032;2023-08-01T01:36:43;5.82;;;3.35;;
60344;SDS011;46188;52.324;8.032;2023-08-01T01:39:08;7.20;;;3.55;;
60344;SDS011;46188;52.324;8.032;2023-08-01T01:41:33;6.88;;;3.38;;
60344;SDS011;46188;52.324;8.032;2023-08-01T01:43:59;3.75;;;3.20;;
60344;SDS011;46188;52.324;8.032;2023-08-01T01:46:24;6.05;;;3.70;;
60344;SDS011;46188;52.324;8.032;2023-08-01T01:48:50;4.53;;;3.20;;
60344;SDS011;46188;52.324;8.032;2023-08-01T01:51:15;3.63;;;3.00;;
60344;SDS011;46188;52.324;8.032;2023-08-01T01:53:40;5.05;;;3.22;;
60344;SDS011;46188;52.324;8.032;2023-08-01T01:56:05;4.82;;;2.97;;
60344;SDS011;46188;52.324;8.032;2023-08-01T01:58:31;5.07;;;3.40;;
60344;SDS011;46188;52.324;8.032;2023-08-01T02:00:56;6.68;;;3.28;;
60344;SDS011;46188;52.324;8.032;2023-08-01T02:03:21;4.25;;;3.00;;
60344;SDS011;46188;52.324;8.032;2023-08-01T02:05:46;5.43;;;3.10;;
60344;SDS011;46188;52.324;8.032;2023-08-01T02:08:12;4.75;;;3.40;;
60344;SDS011;46188;52.324;8.032;2023-08-01T02:10:37;4.57;;;2.90;;
60344;SDS011;46188;52.324;8.032;2023-08-01T02:13:02;4.82;;;2.47;;
60344;SDS011;46188;52.324;8.032;2023-08-01T02:15:27;4.18;;;2.50;;
60344;SDS011;46188;52.324;8.032;2023-08-01T02:17:53;4.07;;;2.72;;
60344;SDS011;46188;52.324;8.032;2023-08-01T02:20:18;4.90;;;2.88;;
60344;SDS011;46188;52.324;8.032;2023-08-01T02:22:44;3.25;;;2.83;;
60344;SDS011;46188;52.324;8.032;2023-08-01T02:25:09;5.18;;;2.80;;
60344;SDS011;46188;52.324;8.032;2023-08-01T02:27:34;6.13;;;3.30;;
60344;SDS011;46188;52.324;8.032;2023-08-01T02:29:59;7.22;;;3.80;;
60344;SDS011;46188;52.324;8.032;2023-08-01T02:32:25;4.40;;;3.28;;
60344;SDS011;46188;52.324;8.032;2023-08-01T02:34:50;3.88;;;3.47;;
60344;SDS011;46188;52.324;8.032;2023-08-01T02:37:15;4.75;;;3.33;;
60344;SDS011;46188;52.324;8.032;2023-08-01T02:39:40;4.30;;;3.30;;
60344;SDS011;46188;52.324;8.032;2023-08-01T02:42:06;5.13;;;3.97;;
60344;SDS011;46188;52.324;8.032;2023-08-01T02:44:31;7.05;;;4.05;;
60344;SDS011;46188;52.324;8.032;2023-08-01T02:46:56;7.15;;;4.30;;
60344;SDS011;46188;52.324;8.032;2023-08-01T02:49:22;4.75;;;4.30;;
60344;SDS011;46188;52.324;8.032;2023-08-01T02:51:47;6.93;;;4.70;;
60344;SDS011;46188;52.324;8.032;2023-08-01T02:54:12;7.13;;;4.95;;
60344;SDS011;46188;52.324;8.032;2023-08-01T02:56:37;7.35;;;5.28;;
60344;SDS011;46188;52.324;8.032;2023-08-01T02:59:06;7.28;;;4.88;;
60344;SDS011;46188;52.324;8.032;2023-08-01T03:01:33;7.63;;;5.60;;
60344;SDS011;46188;52.324;8.032;2023-08-01T03:03:58;8.73;;;6.45;;
60344;SDS011;46188;52.324;8.032;2023-08-01T03:06:24;9.93;;;6.45;;
60344;SDS011;46188;52.324;8.032;2023-08-01T03:08:49;8.68;;;6.45;;
60344;SDS011;46188;52.324;8.032;2023-08-01T03:11:14;6.43;;;5.60;;
60344;SDS011;46188;52.324;8.032;2023-08-01T03:13:39;8.32;;;5.68;;
60344;SDS011;46188;52.324;8.032;2023-08-01T03:16:05;9.85;;;7.05;;
60344;SDS011;46188;52.324;8.032;2023-08-01T03:18:30;10.02;;;7.18;;
60344;SDS011;46188;52.324;8.032;2023-08-01T03:20:55;9.40;;;6.80;;
60344;SDS011;46188;52.324;8.032;2023-08-01T03:23:20;9.50;;;7.53;;
60344;SDS011;46188;52.324;8.032;2023-08-01T03:25:46;9.88;;;7.32;;
60344;SDS011;46188;52.324;8.032;2023-08-01T03:28:11;11.43;;;7.80;;
60344;SDS011;46188;52.324;8.032;2023-08-01T03:30:37;12.23;;;8.02;;
60344;SDS011;46188;52.324;8.032;2023-08-01T03:33:02;9.55;;;7.28;;
60344;SDS011;46188;52.324;8.032;2023-08-01T03:35:28;8.68;;;7.75;;
60344;SDS011;46188;52.324;8.032;2023-08-01T03:37:53;10.02;;;7.22;;
60344;SDS011;46188;52.324;8.032;2023-08-01T03:40:19;9.52;;;6.90;;
60344;SDS011;46188;52.324;8.032;2023-08-01T03:42:44;12.07;;;7.57;;
60344;SDS011;46188;52.324;8.032;2023-08-01T03:45:10;7.70;;;6.78;;
60344;SDS011;46188;52.324;8.032;2023-08-01T03:47:35;12.23;;;7.75;;
60344;SDS011;46188;52.324;8.032;2023-08-01T03:50:00;9.57;;;6.60;;
60344;SDS011;46188;52.324;8.032;2023-08-01T03:52:26;9.07;;;6.50;;
60344;SDS011;46188;52.324;8.032;2023-08-01T03:54:53;10.13;;;7.03;;
60344;SDS011;46188;52.324;8.032;2023-08-01T03:57:19;7.82;;;6.30;;
60344;SDS011;46188;52.324;8.032;2023-08-01T03:59:45;9.13;;;6.30;;
60344;SDS011;46188;52.324;8.032;2023-08-01T04:02:11;9.27;;;6.60;;
60344;SDS011;46188;52.324;8.032;2023-08-01T04:04:37;10.25;;;6.93;;
60344;SDS011;46188;52.324;8.032;2023-08-01T04:07:02;12.75;;;7.57;;
60344;SDS011;46188;52.324;8.032;2023-08-01T04:09:27;8.93;;;6.93;;
60344;SDS011;46188;52.324;8.032;2023-08-01T04:11:54;12.90;;;7.38;;
60344;SDS011;46188;52.324;8.032;2023-08-01T04:14:19;11.82;;;7.18;;
60344;SDS011;46188;52.324;8.032;2023-08-01T04:16:44;11.50;;;7.43;;
60344;SDS011;46188;52.324;8.032;2023-08-01T04:19:10;17.80;;;9.00;;
60344;SDS011;46188;52.324;8.032;2023-08-01T04:21:35;14.48;;;7.55;;
60344;SDS011;46188;52.324;8.032;2023-08-01T04:24:00;15.82;;;8.60;;
60344;SDS011;46188;52.324;8.032;2023-08-01T04:26:25;11.88;;;7.10;;
60344;SDS011;46188;52.324;8.032;2023-08-01T04:28:51;14.02;;;7.80;;
60344;SDS011;46188;52.324;8.032;2023-08-01T04:31:16;17.67;;;8.35;;
60344;SDS011;46188;52.324;8.032;2023-08-01T04:33:41;12.38;;;8.00;;
60344;SDS011;46188;52.324;8.032;2023-08-01T04:36:07;15.65;;;8.48;;
60344;SDS011;46188;52.324;8.032;2023-08-01T04:38:32;11.60;;;8.23;;
60344;SDS011;46188;52.324;8.032;2023-08-01T04:40:58;14.48;;;7.90;;
60344;SDS011;46188;52.324;8.032;2023-08-01T04:43:23;14.23;;;8.93;;
60344;SDS011;46188;52.324;8.032;2023-08-01T04:45:48;19.38;;;9.20;;
60344;SDS011;46188;52.324;8.032;2023-08-01T04:48:13;13.20;;;7.82;;
60344;SDS011;46188;52.324;8.032;2023-08-01T04:50:39;16.83;;;8.65;;
60344;SDS011;46188;52.324;8.032;2023-08-01T04:53:04;15.90;;;8.95;;
60344;SDS011;46188;52.324;8.032;2023-08-01T04:55:31;18.73;;;8.00;;
60344;SDS011;46188;52.324;8.032;2023-08-01T04:57:56;14.05;;;7.85;;
60344;SDS011;46188;52.324;8.032;2023-08-01T05:00:21;12.00;;;7.28;;
60344;SDS011;46188;52.324;8.032;2023-08-01T05:02:46;14.35;;;7.70;;
60344;SDS011;46188;52.324;8.032;2023-08-01T05:05:12;12.88;;;7.55;;
60344;SDS011;46188;52.324;8.032;2023-08-01T05:07:37;14.13;;;7.47;;
60344;SDS011;46188;52.324;8.032;2023-08-01T05:10:02;14.68;;;7.70;;
60344;SDS011;46188;52.324;8.032;2023-08-01T05:12:28;13.10;;;7.10;;
60344;SDS011;46188;52.324;8.032;2023-08-01T05:14:53;11.82;;;6.70;;
60344;SDS011;46188;52.324;8.032;2023-08-01T05:17:18;14.07;;;7.32;;
60344;SDS011;46188;52.324;8.032;2023-08-01T05:19:44;12.13;;;7.30;;
60344;SDS011;46188;52.324;8.032;2023-08-01T05:22:09;12.30;;;7.30;;
60344;SDS011;46188;52.324;8.032;2023-08-01T05:24:34;16.55;;;7.75;;
60344;SDS011;46188;52.324;8.032;2023-08-01T05:26:59;13.90;;;7.47;;
60344;SDS011;46188;52.324;8.032;2023-08-01T05:29:24;14.95;;;6.47;;
60344;SDS011;46188;52.324;8.032;2023-08-01T05:31:50;11.45;;;6.75;;
60344;SDS011;46188;52.324;8.032;2023-08-01T05:34:15;16.80;;;7.63;;
60344;SDS011;46188;52.324;8.032;2023-08-01T05:36:40;15.18;;;6.45;;
60344;SDS011;46188;52.324;8.032;2023-08-01T05:39:06;12.52;;;6.32;;
60344;SDS011;46188;52.324;8.032;2023-08-01T05:41:31;11.05;;;5.93;;
60344;SDS011;46188;52.324;8.032;2023-08-01T05:43:57;12.73;;;5.63;;
60344;SDS011;46188;52.324;8.032;2023-08-01T05:46:23;9.40;;;5.95;;
60344;SDS011;46188;52.324;8.032;2023-08-01T05:48:48;12.00;;;6.50;;
60344;SDS011;46188;52.324;8.032;2023-08-01T05:51:13;14.27;;;5.78;;
60344;SDS011;46188;52.324;8.032;2023-08-01T05:53:39;13.23;;;5.72;;
60344;SDS011;46188;52.324;8.032;2023-08-01T05:56:04;12.48;;;5.40;;
60344;SDS011;46188;52.324;8.032;2023-08-01T05:58:30;16.00;;;6.72;;
60344;SDS011;46188;52.324;8.032;2023-08-01T06:00:55;13.38;;;6.38;;
60344;SDS011;46188;52.324;8.032;2023-08-01T06:03:21;12.27;;;6.03;;
60344;SDS011;46188;52.324;8.032;2023-08-01T06:05:46;15.98;;;6.45;;
60344;SDS011;46188;52.324;8.032;2023-08-01T06:08:11;10.60;;;5.47;;
60344;SDS011;46188;52.324;8.032;2023-08-01T06:10:38;12.52;;;6.25;;
60344;SDS011;46188;52.324;8.032;2023-08-01T06:13:03;14.77;;;6.38;;
60344;SDS011;46188;52.324;8.032;2023-08-01T06:15:29;16.77;;;6.95;;
60344;SDS011;46188;52.324;8.032;2023-08-01T06:17:54;16.35;;;6.78;;
60344;SDS011;46188;52.324;8.032;2023-08-01T06:20:19;15.48;;;6.15;;
60344;SDS011;46188;52.324;8.032;2023-08-01T06:22:44;11.45;;;6.43;;
60344;SDS011;46188;52.324;8.032;2023-08-01T06:25:10;10.38;;;6.25;;
60344;SDS011;46188;52.324;8.032;2023-08-01T06:27:36;15.00;;;6.60;;
60344;SDS011;46188;52.324;8.032;2023-08-01T06:30:02;13.90;;;6.68;;
60344;SDS011;46188;52.324;8.032;2023-08-01T06:32:27;11.60;;;5.85;;
60344;SDS011;46188;52.324;8.032;2023-08-01T06:34:52;12.65;;;6.78;;
60344;SDS011;46188;52.324;8.032;2023-08-01T06:37:18;13.40;;;6.63;;
60344;SDS011;46188;52.324;8.032;2023-08-01T06:39:43;15.23;;;7.13;;
60344;SDS011;46188;52.324;8.032;2023-08-01T06:42:08;15.20;;;6.38;;
60344;SDS011;46188;52.324;8.032;2023-08-01T06:44:33;12.80;;;6.10;;
60344;SDS011;46188;52.324;8.032;2023-08-01T06:46:59;13.50;;;6.63;;
60344;SDS011;46188;52.324;8.032;2023-08-01T06:49:24;13.13;;;5.80;;
60344;SDS011;46188;52.324;8.032;2023-08-01T06:51:49;11.10;;;6.18;;
60344;SDS011;46188;52.324;8.032;2023-08-01T06:54:15;15.95;;;6.20;;
60344;SDS011;46188;52.324;8.032;2023-08-01T06:56:40;14.02;;;6.25;;
60344;SDS011;46188;52.324;8.032;2023-08-01T06:59:07;9.00;;;5.50;;
60344;SDS011;46188;52.324;8.032;2023-08-01T07:01:33;9.55;;;6.00;;
60344;SDS011;46188;52.324;8.032;2023-08-01T07:03:58;17.60;;;7.10;;
60344;SDS011;46188;52.324;8.032;2023-08-01T07:06:23;10.98;;;5.65;;
60344;SDS011;46188;52.324;8.032;2023-08-01T07:08:49;8.13;;;5.30;;
60344;SDS011;46188;52.324;8.032;2023-08-01T07:11:15;8.38;;;5.57;;
60344;SDS011;46188;52.324;8.032;2023-08-01T07:13:40;11.40;;;5.38;;
60344;SDS011;46188;52.324;8.032;2023-08-01T07:16:05;9.45;;;5.57;;
60344;SDS011;46188;52.324;8.032;2023-08-01T07:18:30;12.88;;;6.15;;
60344;SDS011;46188;52.324;8.032;2023-08-01T07:20:59;9.82;;;5.82;;
60344;SDS011;46188;52.324;8.032;2023-08-01T07:23:28;8.77;;;5.53;;
60344;SDS011;46188;52.324;8.032;2023-08-01T07:25:54;9.90;;;5.45;;
60344;SDS011;46188;52.324;8.032;2023-08-01T07:28:19;7.75;;;5.10;;
60344;SDS011;46188;52.324;8.032;2023-08-01T07:30:44;10.75;;;5.47;;
60344;SDS011;46188;52.324;8.032;2023-08-01T07:33:10;8.40;;;5.40;;
60344;SDS011;46188;52.324;8.032;2023-08-01T07:35:35;5.75;;;4.85;;
60344;SDS011;46188;52.324;8.032;2023-08-01T07:38:01;8.30;;;4.50;;
60344;SDS011;46188;52.324;8.032;2023-08-01T07:40:26;7.72;;;4.40;;
60344;SDS011;46188;52.324;8.032;2023-08-01T07:42:51;10.65;;;4.55;;
60344;SDS011;46188;52.324;8.032;2023-08-01T07:45:17;6.70;;;3.85;;
60344;SDS011;46188;52.324;8.032;2023-08-01T07:47:43;10.60;;;4.53;;
60344;SDS011;46188;52.324;8.032;2023-08-01T07:50:08;6.30;;;3.30;;
60344;SDS011;46188;52.324;8.032;2023-08-01T07:52:34;7.07;;;3.40;;
60344;SDS011;46188;52.324;8.032;2023-08-01T07:54:59;6.20;;;2.92;;
60344;SDS011;46188;52.324;8.032;2023-08-01T07:57:25;5.90;;;3.13;;
60344;SDS011;46188;52.324;8.032;2023-08-01T07:59:50;10.65;;;3.75;;
60344;SDS011;46188;52.324;8.032;2023-08-01T08:02:15;6.93;;;3.80;;
60344;SDS011;46188;52.324;8.032;2023-08-01T08:04:41;9.75;;;4.45;;
60344;SDS011;46188;52.324;8.032;2023-08-01T08:07:06;6.72;;;3.97;;
60344;SDS011;46188;52.324;8.032;2023-08-01T08:09:32;15.88;;;4.78;;
60344;SDS011;46188;52.324;8.032;2023-08-01T08:11:57;7.28;;;3.97;;
60344;SDS011;46188;52.324;8.032;2023-08-01T08:14:22;8.73;;;4.32;;
60344;SDS011;46188;52.324;8.032;2023-08-01T08:16:48;9.60;;;4.03;;
60344;SDS011;46188;52.324;8.032;2023-08-01T08:19:13;7.18;;;3.92;;
60344;SDS011;46188;52.324;8.032;2023-08-01T08:21:39;8.20;;;4.13;;
60344;SDS011;46188;52.324;8.032;2023-08-01T08:24:04;8.02;;;3.53;;
60344;SDS011;46188;52.324;8.032;2023-08-01T08:26:29;11.48;;;4.43;;
60344;SDS011;46188;52.324;8.032;2023-08-01T08:28:56;4.80;;;3.55;;
60344;SDS011;46188;52.324;8.032;2023-08-01T08:31:21;9.15;;;4.55;;
60344;SDS011;46188;52.324;8.032;2023-08-01T08:33:46;10.57;;;3.65;;
60344;SDS011;46188;52.324;8.032;2023-08-01T08:36:12;8.40;;;4.30;;
60344;SDS011;46188;52.324;8.032;2023-08-01T08:38:37;7.13;;;3.25;;
60344;SDS011;46188;52.324;8.032;2023-08-01T08:41:06;7.93;;;3.85;;
60344;SDS011;46188;52.324;8.032;2023-08-01T08:43:34;7.93;;;3.55;;
60344;SDS011;46188;52.324;8.032;2023-08-01T08:46:00;6.70;;;3.38;;
60344;SDS011;46188;52.324;8.032;2023-08-01T08:48:26;9.27;;;3.72;;
60344;SDS011;46188;52.324;8.032;2023-08-01T08:50:53;7.57;;;3.88;;
60344;SDS011;46188;52.324;8.032;2023-08-01T08:53:21;9.15;;;3.92;;
60344;SDS011;46188;52.324;8.032;2023-08-01T08:55:47;7.53;;;4.13;;
60344;SDS011;46188;52.324;8.032;2023-08-01T08:58:13;10.20;;;3.47;;
60344;SDS011;46188;52.324;8.032;2023-08-01T09:00:38;6.88;;;4.45;;
60344;SDS011;46188;52.324;8.032;2023-08-01T09:03:04;7.43;;;3.78;;
60344;SDS011;46188;52.324;8.032;2023-08-01T09:05:31;9.45;;;4.65;;
60344;SDS011;46188;52.324;8.032;2023-08-01T09:08:04;5.07;;;3.58;;
60344;SDS011;46188;52.324;8.032;2023-08-01T09:10:35;8.55;;;4.40;;
60344;SDS011;46188;52.324;8.032;2023-08-01T09:13:00;6.45;;;4.20;;
60344;SDS011;46188;52.324;8.032;2023-08-01T09:15:26;11.52;;;4.00;;
60344;SDS011;46188;52.324;8.032;2023-08-01T09:17:53;9.35;;;3.83;;
60344;SDS011;46188;52.324;8.032;2023-08-01T09:20:25;7.00;;;3.45;;
60344;SDS011;46188;52.324;8.032;2023-08-01T09:22:52;9.02;;;4.05;;
60344;SDS011;46188;52.324;8.032;2023-08-01T09:25:17;4.80;;;3.15;;
60344;SDS011;46188;52.324;8.032;2023-08-01T09:27:42;3.42;;;2.80;;
60344;SDS011;46188;52.324;8.032;2023-08-01T09:32:34;8.00;;;3.05;;
60344;SDS011;46188;52.324;8.032;2023-08-01T09:35:00;10.18;;;3.10;;
60344;SDS011;46188;52.324;8.032;2023-08-01T09:37:25;6.93;;;3.25;;
60344;SDS011;46188;52.324;8.032;2023-08-01T09:39:54;7.00;;;3.17;;
60344;SDS011;46188;52.324;8.032;2023-08-01T09:42:20;8.32;;;3.50;;
60344;SDS011;46188;52.324;8.032;2023-08-01T09:44:45;7.13;;;3.45;;
60344;SDS011;46188;52.324;8.032;2023-08-01T09:47:11;6.10;;;3.15;;
60344;SDS011;46188;52.324;8.032;2023-08-01T09:49:46;7.93;;;4.00;;
60344;SDS011;46188;52.324;8.032;2023-08-01T09:52:13;10.30;;;3.95;;
60344;SDS011;46188;52.324;8.032;2023-08-01T09:54:38;11.75;;;3.85;;
60344;SDS011;46188;52.324;8.032;2023-08-01T09:57:03;9.98;;;4.22;;
60344;SDS011;46188;52.324;8.032;2023-08-01T09:59:31;9.65;;;3.80;;
60344;SDS011;46188;52.324;8.032;2023-08-01T10:01:58;6.88;;;4.22;;
60344;SDS011;46188;52.324;8.032;2023-08-01T10:04:26;11.02;;;4.60;;
60344;SDS011;46188;52.324;8.032;2023-08-01T10:06:54;10.60;;;4.40;;
60344;SDS011;46188;52.324;8.032;2023-08-01T10:09:24;8.65;;;4.43;;
60344;SDS011;46188;52.324;8.032;2023-08-01T10:11:50;9.38;;;4.40;;
60344;SDS011;46188;52.324;8.032;2023-08-01T10:14:16;12.23;;;4.80;;
60344;SDS011;46188;52.324;8.032;2023-08-01T10:16:42;105.38;;;12.52;;
60344;SDS011;46188;52.324;8.032;2023-08-01T10:19:08;10.35;;;4.88;;
60344;SDS011;46188;52.324;8.032;2023-08-01T10:21:34;9.30;;;4.20;;
60344;SDS011;46188;52.324;8.032;2023-08-01T10:24:00;9.70;;;4.63;;
60344;SDS011;46188;52.324;8.032;2023-08-01T10:26:28;8.20;;;3.17;;
60344;SDS011;46188;52.324;8.032;2023-08-01T10:28:54;8.02;;;3.25;;
60344;SDS011;46188;52.324;8.032;2023-08-01T10:31:19;7.35;;;2.72;;
60344;SDS011;46188;52.324;8.032;2023-08-01T10:33:47;10.82;;;2.63;;
60344;SDS011;46188;52.324;8.032;2023-08-01T10:36:20;7.93;;;2.88;;
60344;SDS011;46188;52.324;8.032;2023-08-01T10:38:53;8.32;;;2.90;;
60344;SDS011;46188;52.324;8.032;2023-08-01T10:42:20;13.55;;;3.00;;
60344;SDS011;46188;52.324;8.032;2023-08-01T10:44:24;11.65;;;4.22;;
60344;SDS011;46188;52.324;8.032;2023-08-01T10:46:54;5.38;;;3.03;;
60344;SDS011;46188;52.324;8.032;2023-08-01T10:49:38;6.75;;;2.67;;
60344;SDS011;46188;52.324;8.032;2023-08-01T10:52:18;7.35;;;2.80;;
60344;SDS011;46188;52.324;8.032;2023-08-01T10:57:26;6.65;;;2.63;;
60344;SDS011;46188;52.324;8.032;2023-08-01T10:59:53;8.15;;;2.63;;
60344;SDS011;46188;52.324;8.032;2023-08-01T11:02:21;11.32;;;2.40;;
60344;SDS011;46188;52.324;8.032;2023-08-01T11:04:58;8.38;;;2.95;;
60344;SDS011;46188;52.324;8.032;2023-08-01T11:07:28;5.00;;;2.38;;
60344;SDS011;46188;52.324;8.032;2023-08-01T11:10:12;10.18;;;2.42;;
60344;SDS011;46188;52.324;8.032;2023-08-01T11:12:39;5.47;;;2.30;;
60344;SDS011;46188;52.324;8.032;2023-08-01T11:15:06;5.07;;;2.78;;
60344;SDS011;46188;52.324;8.032;2023-08-01T11:17:33;7.45;;;2.50;;
60344;SDS011;46188;52.324;8.032;2023-08-01T11:20:05;6.47;;;2.97;;
60344;SDS011;46188;52.324;8.032;2023-08-01T11:22:35;7.32;;;2.70;;
60344;SDS011;46188;52.324;8.032;2023-08-01T11:25:01;6.70;;;2.50;;
60344;SDS011;46188;52.324;8.032;2023-08-01T11:27:27;4.57;;;2.13;;
60344;SDS011;46188;52.324;8.032;2023-08-01T11:29:53;5.13;;;2.72;;
60344;SDS011;46188;52.324;8.032;2023-08-01T11:32:19;7.35;;;2.95;;
60344;SDS011;46188;52.324;8.032;2023-08-01T11:34:48;6.22;;;3.22;;
60344;SDS011;46188;52.324;8.032;2023-08-01T11:37:14;7.03;;;2.50;;
60344;SDS011;46188;52.324;8.032;2023-08-01T11:39:40;8.77;;;2.78;;
60344;SDS011;46188;52.324;8.032;2023-08-01T11:42:06;7.95;;;2.80;;
60344;SDS011;46188;52.324;8.032;2023-08-01T11:44:31;5.40;;;2.22;;
60344;SDS011;46188;52.324;8.032;2023-08-01T11:46:57;4.07;;;1.80;;
60344;SDS011;46188;52.324;8.032;2023-08-01T11:49:22;4.07;;;1.85;;
60344;SDS011;46188;52.324;8.032;2023-08-01T11:51:48;4.28;;;1.92;;
60344;SDS011;46188;52.324;8.032;2023-08-01T11:54:13;3.67;;;2.10;;
60344;SDS011;46188;52.324;8.032;2023-08-01T11:56:39;6.07;;;2.40;;
60344;SDS011;46188;52.324;8.032;2023-08-01T11:59:09;4.60;;;2.33;;
60344;SDS011;46188;52.324;8.032;2023-08-01T12:01:39;9.23;;;2.40;;
60344;SDS011;46188;52.324;8.032;2023-08-01T12:04:05;4.88;;;2.33;;
60344;SDS011;46188;52.324;8.032;2023-08-01T12:06:31;4.82;;;2.40;;
60344;SDS011;46188;52.324;8.032;2023-08-01T12:09:06;4.45;;;2.50;;
60344;SDS011;46188;52.324;8.032;2023-08-01T12:11:34;3.97;;;2.00;;
60344;SDS011;46188;52.324;8.032;2023-08-01T12:14:03;3.58;;;2.35;;
60344;SDS011;46188;52.324;8.032;2023-08-01T12:16:36;6.72;;;2.08;;
60344;SDS011;46188;52.324;8.032;2023-08-01T12:19:02;6.28;;;2.53;;
60344;SDS011;46188;52.324;8.032;2023-08-01T12:21:28;2.97;;;1.90;;
60344;SDS011;46188;52.324;8.032;2023-08-01T12:23:54;5.25;;;2.40;;
60344;SDS011;46188;52.324;8.032;2023-08-01T12:26:20;5.13;;;2.10;;
60344;SDS011;46188;52.324;8.032;2023-08-01T12:28:45;4.60;;;2.40;;
60344;SDS011;46188;52.324;8.032;2023-08-01T12:31:14;5.63;;;2.03;;
60344;SDS011;46188;52.324;8.032;2023-08-01T12:33:41;9.25;;;2.38;;
60344;SDS011;46188;52.324;8.032;2023-08-01T12:36:06;6.03;;;2.83;;
60344;SDS011;46188;52.324;8.032;2023-08-01T12:38:31;4.45;;;2.30;;
60344;SDS011;46188;52.324;8.032;2023-08-01T12:40:56;6.00;;;2.78;;
60344;SDS011;46188;52.324;8.032;2023-08-01T12:43:22;4.05;;;2.10;;
60344;SDS011;46188;52.324;8.032;2023-08-01T12:45:47;12.73;;;2.72;;
60344;SDS011;46188;52.324;8.032;2023-08-01T12:48:13;5.38;;;2.42;;
60344;SDS011;46188;52.324;8.032;2023-08-01T12:50:38;6.13;;;2.40;;
60344;SDS011;46188;52.324;8.032;2023-08-01T12:53:03;7.38;;;2.47;;
60344;SDS011;46188;52.324;8.032;2023-08-01T12:55:29;22.98;;;4.13;;
60344;SDS011;46188;52.324;8.032;2023-08-01T12:57:54;6.35;;;2.40;;
60344;SDS011;46188;52.324;8.032;2023-08-01T13:00:19;6.32;;;2.28;;
60344;SDS011;46188;52.324;8.032;2023-08-01T13:02:44;4.65;;;2.30;;
60344;SDS011;46188;52.324;8.032;2023-08-01T13:05:10;8.05;;;2.00;;
60344;SDS011;46188;52.324;8.032;2023-08-01T13:07:35;5.43;;;2.13;;
60344;SDS011;46188;52.324;8.032;2023-08-01T13:10:01;5.65;;;2.10;;
60344;SDS011;46188;52.324;8.032;2023-08-01T13:12:26;5.47;;;2.30;;
60344;SDS011;46188;52.324;8.032;2023-08-01T13:14:51;5.57;;;2.42;;
60344;SDS011;46188;52.324;8.032;2023-08-01T13:17:17;6.18;;;2.40;;
60344;SDS011;46188;52.324;8.032;2023-08-01T13:19:42;9.38;;;2.42;;
60344;SDS011;46188;52.324;8.032;2023-08-01T13:22:07;19.15;;;3.42;;
60344;SDS011;46188;52.324;8.032;2023-08-01T13:24:33;6.10;;;2.25;;
60344;SDS011;46188;52.324;8.032;2023-08-01T13:26:58;4.60;;;2.42;;
60344;SDS011;46188;52.324;8.032;2023-08-01T13:29:23;5.13;;;2.40;;
60344;SDS011;46188;52.324;8.032;2023-08-01T13:31:49;4.07;;;2.63;;
60344;SDS011;46188;52.324;8.032;2023-08-01T13:34:14;4.07;;;1.92;;
60344;SDS011;46188;52.324;8.032;2023-08-01T13:36:39;5.03;;;2.20;;
60344;SDS011;46188;52.324;8.032;2023-08-01T13:39:04;4.32;;;2.13;;
60344;SDS011;46188;52.324;8.032;2023-08-01T13:41:31;4.32;;;1.77;;
60344;SDS011;46188;52.324;8.032;2023-08-01T13:43:57;3.28;;;1.45;;
60344;SDS011;46188;52.324;8.032;2023-08-01T13:46:22;3.20;;;1.70;;
60344;SDS011;46188;52.324;8.032;2023-08-01T13:48:47;4.20;;;1.58;;
60344;SDS011;46188;52.324;8.032;2023-08-01T13:51:13;3.20;;;1.90;;
60344;SDS011;46188;52.324;8.032;2023-08-01T13:53:38;5.43;;;1.65;;
60344;SDS011;46188;52.324;8.032;2023-08-01T13:56:14;4.50;;;1.83;;
60344;SDS011;46188;52.324;8.032;2023-08-01T13:58:40;3.67;;;1.58;;
60344;SDS011;46188;52.324;8.032;2023-08-01T14:01:07;3.55;;;1.70;;
60344;SDS011;46188;52.324;8.032;2023-08-01T14:03:34;3.53;;;1.60;;
60344;SDS011;46188;52.324;8.032;2023-08-01T14:06:06;5.88;;;2.17;;
60344;SDS011;46188;52.324;8.032;2023-08-01T14:08:33;4.85;;;1.70;;
60344;SDS011;46188;52.324;8.032;2023-08-01T14:11:01;4.75;;;1.73;;
60344;SDS011;46188;52.324;8.032;2023-08-01T14:13:26;3.53;;;1.90;;
60344;SDS011;46188;52.324;8.032;2023-08-01T14:15:51;3.30;;;1.77;;
60344;SDS011;46188;52.324;8.032;2023-08-01T14:18:17;4.47;;;1.70;;
60344;SDS011;46188;52.324;8.032;2023-08-01T14:20:42;6.72;;;2.78;;
60344;SDS011;46188;52.324;8.032;2023-08-01T14:23:07;5.22;;;1.83;;
60344;SDS011;46188;52.324;8.032;2023-08-01T14:25:33;2.38;;;1.55;;
60344;SDS011;46188;52.324;8.032;2023-08-01T14:27:59;3.60;;;1.40;;
60344;SDS011;46188;52.324;8.032;2023-08-01T14:30:24;3.20;;;1.23;;
60344;SDS011;46188;52.324;8.032;2023-08-01T14:32:49;2.60;;;1.50;;
60344;SDS011;46188;52.324;8.032;2023-08-01T14:35:15;4.30;;;1.50;;
60344;SDS011;46188;52.324;8.032;2023-08-01T14:37:40;2.50;;;1.17;;
60344;SDS011;46188;52.324;8.032;2023-08-01T14:40:10;4.47;;;1.27;;
60344;SDS011;46188;52.324;8.032;2023-08-01T14:42:35;3.70;;;1.90;;